sensor_id;sensor_type;location;lat;lon;timestamp;P1;durP1;ratioP1;P2;durP2;ratioP2
14143;SDS011;7152;48.348;10.980;2023-02-10T00:03:31;51.23;;;27.97;;
14143;SDS011;7152;48.348;10.980;2023-02-10T00:05:57;55.13;;;29.20;;
14143;SDS011;7152;48.348;10.980;2023-02-10T00:08:23;52.63;;;27.90;;
14143;SDS011;7152;48.348;10.980;2023-02-10T00:10:48;50.93;;;28.37;;
14143;SDS011;7152;48.348;10.980;2023-02-10T00:13:14;62.23;;;29.93;;
14143;SDS011;7152;48.348;10.980;2023-02-10T00:15:40;47.00;;;27.57;;
14143;SDS011;7152;48.348;10.980;2023-02-10T00:18:06;53.63;;;28.57;;
14143;SDS011;7152;48.348;10.980;2023-02-10T00:20:31;51.00;;;27.93;;
14143;SDS011;7152;48.348;10.980;2023-02-10T00:22:57;50.57;;;28.27;;
14143;SDS011;7152;48.348;10.980;2023-02-10T00:25:23;51.17;;;27.60;;
14143;SDS011;7152;48.348;10.980;2023-02-10T00:27:48;48.00;;;27.93;;
14143;SDS011;7152;48.348;10.980;2023-02-10T00:30:14;55.10;;;29.27;;
14143;SDS011;7152;48.348;10.980;2023-02-10T00:32:39;50.00;;;28.60;;
14143;SDS011;7152;48.348;10.980;2023-02-10T00:35:08;58.33;;;28.27;;
14143;SDS011;7152;48.348;10.980;2023-02-10T00:37:34;54.50;;;30.60;;
14143;SDS011;7152;48.348;10.980;2023-02-10T00:40:00;52.57;;;29.07;;
14143;SDS011;7152;48.348;10.980;2023-02-10T00:42:25;55.13;;;28.77;;
14143;SDS011;7152;48.348;10.980;2023-02-10T00:44:51;51.70;;;28.80;;
14143;SDS011;7152;48.348;10.980;2023-02-10T00:47:17;49.87;;;28.23;;
14143;SDS011;7152;48.348;10.980;2023-02-10T00:49:42;56.60;;;28.43;;
14143;SDS011;7152;48.348;10.980;2023-02-10T00:52:08;52.40;;;27.00;;
14143;SDS011;7152;48.348;10.980;2023-02-10T00:54:34;50.73;;;27.93;;
14143;SDS011;7152;48.348;10.980;2023-02-10T00:56:59;49.57;;;27.53;;
14143;SDS011;7152;48.348;10.980;2023-02-10T00:59:25;52.00;;;27.63;;
14143;SDS011;7152;48.348;10.980;2023-02-10T01:01:51;48.80;;;26.17;;
14143;SDS011;7152;48.348;10.980;2023-02-10T01:04:16;43.63;;;26.20;;
14143;SDS011;7152;48.348;10.980;2023-02-10T01:06:42;48.73;;;25.77;;
14143;SDS011;7152;48.348;10.980;2023-02-10T01:09:08;48.40;;;26.87;;
14143;SDS011;7152;48.348;10.980;2023-02-10T01:11:34;50.30;;;27.10;;
14143;SDS011;7152;48.348;10.980;2023-02-10T01:14:00;49.27;;;27.10;;
14143;SDS011;7152;48.348;10.980;2023-02-10T01:16:25;50.83;;;26.73;;
14143;SDS011;7152;48.348;10.980;2023-02-10T01:18:51;47.40;;;24.47;;
14143;SDS011;7152;48.348;10.980;2023-02-10T01:21:18;45.93;;;24.70;;
14143;SDS011;7152;48.348;10.980;2023-02-10T01:23:45;47.57;;;26.00;;
14143;SDS011;7152;48.348;10.980;2023-02-10T01:26:11;46.00;;;24.00;;
14143;SDS011;7152;48.348;10.980;2023-02-10T01:28:38;46.23;;;26.00;;
14143;SDS011;7152;48.348;10.980;2023-02-10T01:31:08;44.57;;;25.70;;
14143;SDS011;7152;48.348;10.980;2023-02-10T01:33:35;44.97;;;22.93;;
14143;SDS011;7152;48.348;10.980;2023-02-10T01:36:09;48.53;;;25.07;;
14143;SDS011;7152;48.348;10.980;2023-02-10T01:38:37;46.63;;;26.47;;
14143;SDS011;7152;48.348;10.980;2023-02-10T01:41:04;49.63;;;25.60;;
14143;SDS011;7152;48.348;10.980;2023-02-10T01:43:30;52.53;;;26.03;;
14143;SDS011;7152;48.348;10.980;2023-02-10T01:45:56;43.07;;;24.37;;
14143;SDS011;7152;48.348;10.980;2023-02-10T01:48:22;50.47;;;26.37;;
14143;SDS011;7152;48.348;10.980;2023-02-10T01:53:21;45.43;;;24.63;;
14143;SDS011;7152;48.348;10.980;2023-02-10T01:55:49;49.87;;;25.10;;
14143;SDS011;7152;48.348;10.980;2023-02-10T01:58:18;48.53;;;26.10;;
14143;SDS011;7152;48.348;10.980;2023-02-10T02:00:48;47.13;;;24.90;;
14143;SDS011;7152;48.348;10.980;2023-02-10T02:03:13;50.37;;;25.53;;
14143;SDS011;7152;48.348;10.980;2023-02-10T02:05:40;46.70;;;25.93;;
14143;SDS011;7152;48.348;10.980;2023-02-10T02:08:08;48.67;;;26.50;;
14143;SDS011;7152;48.348;10.980;2023-02-10T02:11:00;53.83;;;28.73;;
14143;SDS011;7152;48.348;10.980;2023-02-10T02:13:35;52.83;;;27.50;;
14143;SDS011;7152;48.348;10.980;2023-02-10T02:19:02;44.73;;;24.73;;
14143;SDS011;7152;48.348;10.980;2023-02-10T02:24:23;43.53;;;25.70;;
14143;SDS011;7152;48.348;10.980;2023-02-10T02:30:01;42.97;;;24.80;;
14143;SDS011;7152;48.348;10.980;2023-02-10T02:32:34;48.97;;;24.93;;
14143;SDS011;7152;48.348;10.980;2023-02-10T02:35:24;49.90;;;25.93;;
14143;SDS011;7152;48.348;10.980;2023-02-10T02:37:53;49.03;;;25.03;;
14143;SDS011;7152;48.348;10.980;2023-02-10T02:40:20;52.17;;;26.13;;
14143;SDS011;7152;48.348;10.980;2023-02-10T02:42:46;51.53;;;27.77;;
14143;SDS011;7152;48.348;10.980;2023-02-10T02:45:20;50.90;;;26.00;;
14143;SDS011;7152;48.348;10.980;2023-02-10T02:48:08;47.67;;;27.03;;
14143;SDS011;7152;48.348;10.980;2023-02-10T02:50:59;48.47;;;24.90;;
14143;SDS011;7152;48.348;10.980;2023-02-10T02:56:49;50.37;;;26.20;;
14143;SDS011;7152;48.348;10.980;2023-02-10T03:02:09;49.40;;;26.60;;
14143;SDS011;7152;48.348;10.980;2023-02-10T03:04:37;45.77;;;25.03;;
14143;SDS011;7152;48.348;10.980;2023-02-10T03:07:04;45.07;;;24.07;;
14143;SDS011;7152;48.348;10.980;2023-02-10T03:09:30;48.20;;;24.87;;
14143;SDS011;7152;48.348;10.980;2023-02-10T03:11:56;42.27;;;23.87;;
14143;SDS011;7152;48.348;10.980;2023-02-10T03:14:22;48.47;;;24.80;;
14143;SDS011;7152;48.348;10.980;2023-02-10T03:16:48;46.77;;;24.60;;
14143;SDS011;7152;48.348;10.980;2023-02-10T03:19:14;45.27;;;24.80;;
14143;SDS011;7152;48.348;10.980;2023-02-10T03:21:39;41.93;;;24.10;;
14143;SDS011;7152;48.348;10.980;2023-02-10T03:24:05;50.47;;;23.87;;
14143;SDS011;7152;48.348;10.980;2023-02-10T03:26:31;42.43;;;24.80;;
14143;SDS011;7152;48.348;10.980;2023-02-10T03:28:56;46.73;;;25.33;;
14143;SDS011;7152;48.348;10.980;2023-02-10T03:31:22;39.40;;;25.20;;
14143;SDS011;7152;48.348;10.980;2023-02-10T03:33:48;47.77;;;24.87;;
14143;SDS011;7152;48.348;10.980;2023-02-10T03:36:14;40.67;;;23.63;;
14143;SDS011;7152;48.348;10.980;2023-02-10T03:38:40;41.90;;;23.00;;
14143;SDS011;7152;48.348;10.980;2023-02-10T03:41:07;37.80;;;21.93;;
14143;SDS011;7152;48.348;10.980;2023-02-10T03:43:32;42.13;;;23.53;;
14143;SDS011;7152;48.348;10.980;2023-02-10T03:46:01;46.43;;;24.63;;
14143;SDS011;7152;48.348;10.980;2023-02-10T03:48:27;40.63;;;23.73;;
14143;SDS011;7152;48.348;10.980;2023-02-10T03:50:57;39.70;;;22.33;;
14143;SDS011;7152;48.348;10.980;2023-02-10T03:53:23;35.90;;;21.27;;
14143;SDS011;7152;48.348;10.980;2023-02-10T03:55:49;38.37;;;21.67;;
14143;SDS011;7152;48.348;10.980;2023-02-10T03:58:15;41.07;;;21.43;;
14143;SDS011;7152;48.348;10.980;2023-02-10T04:00:41;39.17;;;22.30;;
14143;SDS011;7152;48.348;10.980;2023-02-10T04:03:07;39.53;;;21.87;;
14143;SDS011;7152;48.348;10.980;2023-02-10T04:05:32;36.43;;;21.93;;
14143;SDS011;7152;48.348;10.980;2023-02-10T04:07:58;37.80;;;22.30;;
14143;SDS011;7152;48.348;10.980;2023-02-10T04:10:23;39.20;;;21.83;;
14143;SDS011;7152;48.348;10.980;2023-02-10T04:12:49;41.33;;;21.33;;
14143;SDS011;7152;48.348;10.980;2023-02-10T04:15:15;38.30;;;20.13;;
14143;SDS011;7152;48.348;10.980;2023-02-10T04:17:40;38.43;;;21.03;;
14143;SDS011;7152;48.348;10.980;2023-02-10T04:20:06;35.53;;;20.53;;
14143;SDS011;7152;48.348;10.980;2023-02-10T04:22:32;41.73;;;20.73;;
14143;SDS011;7152;48.348;10.980;2023-02-10T04:24:58;33.33;;;21.07;;
14143;SDS011;7152;48.348;10.980;2023-02-10T04:27:23;33.07;;;19.93;;
14143;SDS011;7152;48.348;10.980;2023-02-10T04:29:49;38.00;;;20.27;;
14143;SDS011;7152;48.348;10.980;2023-02-10T04:32:15;40.33;;;22.27;;
14143;SDS011;7152;48.348;10.980;2023-02-10T04:34:40;36.17;;;21.10;;
14143;SDS011;7152;48.348;10.980;2023-02-10T04:37:06;41.77;;;21.47;;
14143;SDS011;7152;48.348;10.980;2023-02-10T04:39:32;43.40;;;21.70;;
14143;SDS011;7152;48.348;10.980;2023-02-10T04:41:57;37.30;;;22.57;;
14143;SDS011;7152;48.348;10.980;2023-02-10T04:44:23;43.07;;;21.67;;
14143;SDS011;7152;48.348;10.980;2023-02-10T04:46:48;36.37;;;21.47;;
14143;SDS011;7152;48.348;10.980;2023-02-10T04:49:15;36.80;;;20.80;;
14143;SDS011;7152;48.348;10.980;2023-02-10T04:51:42;38.63;;;22.07;;
14143;SDS011;7152;48.348;10.980;2023-02-10T04:54:08;36.57;;;20.73;;
14143;SDS011;7152;48.348;10.980;2023-02-10T04:56:33;37.77;;;20.50;;
14143;SDS011;7152;48.348;10.980;2023-02-10T04:58:59;40.80;;;21.70;;
14143;SDS011;7152;48.348;10.980;2023-02-10T05:01:24;43.03;;;21.23;;
14143;SDS011;7152;48.348;10.980;2023-02-10T05:03:50;39.40;;;20.40;;
14143;SDS011;7152;48.348;10.980;2023-02-10T05:06:16;36.83;;;20.63;;
14143;SDS011;7152;48.348;10.980;2023-02-10T05:08:42;41.53;;;20.87;;
14143;SDS011;7152;48.348;10.980;2023-02-10T05:11:08;34.70;;;21.03;;
14143;SDS011;7152;48.348;10.980;2023-02-10T05:13:35;36.27;;;20.50;;
14143;SDS011;7152;48.348;10.980;2023-02-10T05:16:01;36.90;;;20.70;;
14143;SDS011;7152;48.348;10.980;2023-02-10T05:18:28;35.80;;;20.57;;
14143;SDS011;7152;48.348;10.980;2023-02-10T05:20:55;39.30;;;21.80;;
14143;SDS011;7152;48.348;10.980;2023-02-10T05:23:21;44.27;;;21.77;;
14143;SDS011;7152;48.348;10.980;2023-02-10T05:25:46;32.60;;;19.63;;
14143;SDS011;7152;48.348;10.980;2023-02-10T05:28:12;35.13;;;21.30;;
14143;SDS011;7152;48.348;10.980;2023-02-10T05:30:38;38.30;;;22.90;;
14143;SDS011;7152;48.348;10.980;2023-02-10T05:33:03;43.30;;;21.37;;
14143;SDS011;7152;48.348;10.980;2023-02-10T05:35:29;37.30;;;21.23;;
14143;SDS011;7152;48.348;10.980;2023-02-10T05:37:55;37.67;;;21.80;;
14143;SDS011;7152;48.348;10.980;2023-02-10T05:40:20;41.97;;;21.67;;
14143;SDS011;7152;48.348;10.980;2023-02-10T05:42:47;36.20;;;20.60;;
14143;SDS011;7152;48.348;10.980;2023-02-10T05:45:12;41.67;;;23.73;;
14143;SDS011;7152;48.348;10.980;2023-02-10T05:47:38;36.17;;;21.07;;
14143;SDS011;7152;48.348;10.980;2023-02-10T05:50:04;33.83;;;19.83;;
14143;SDS011;7152;48.348;10.980;2023-02-10T05:52:29;37.30;;;20.73;;
14143;SDS011;7152;48.348;10.980;2023-02-10T05:54:55;35.73;;;21.43;;
14143;SDS011;7152;48.348;10.980;2023-02-10T05:57:21;36.60;;;21.30;;
14143;SDS011;7152;48.348;10.980;2023-02-10T05:59:46;32.60;;;19.30;;
14143;SDS011;7152;48.348;10.980;2023-02-10T06:02:12;31.63;;;17.27;;
14143;SDS011;7152;48.348;10.980;2023-02-10T06:04:37;34.57;;;18.73;;
14143;SDS011;7152;48.348;10.980;2023-02-10T06:07:03;29.77;;;18.50;;
14143;SDS011;7152;48.348;10.980;2023-02-10T06:09:29;30.63;;;19.37;;
14143;SDS011;7152;48.348;10.980;2023-02-10T06:11:55;32.43;;;19.20;;
14143;SDS011;7152;48.348;10.980;2023-02-10T06:14:21;29.43;;;17.83;;
14143;SDS011;7152;48.348;10.980;2023-02-10T06:16:47;29.80;;;18.47;;
14143;SDS011;7152;48.348;10.980;2023-02-10T06:19:12;38.57;;;18.70;;
14143;SDS011;7152;48.348;10.980;2023-02-10T06:21:38;30.30;;;17.37;;
14143;SDS011;7152;48.348;10.980;2023-02-10T06:24:03;29.97;;;17.77;;
14143;SDS011;7152;48.348;10.980;2023-02-10T06:26:29;30.30;;;17.00;;
14143;SDS011;7152;48.348;10.980;2023-02-10T06:28:55;35.60;;;18.60;;
14143;SDS011;7152;48.348;10.980;2023-02-10T06:31:21;34.03;;;18.53;;
14143;SDS011;7152;48.348;10.980;2023-02-10T06:33:47;30.87;;;17.80;;
14143;SDS011;7152;48.348;10.980;2023-02-10T06:36:12;29.27;;;17.50;;
14143;SDS011;7152;48.348;10.980;2023-02-10T06:38:38;30.87;;;18.30;;
14143;SDS011;7152;48.348;10.980;2023-02-10T06:41:05;30.43;;;17.60;;
14143;SDS011;7152;48.348;10.980;2023-02-10T06:43:31;27.67;;;15.80;;
14143;SDS011;7152;48.348;10.980;2023-02-10T06:45:57;33.80;;;18.80;;
14143;SDS011;7152;48.348;10.980;2023-02-10T06:48:22;32.03;;;18.17;;
14143;SDS011;7152;48.348;10.980;2023-02-10T06:50:48;28.37;;;16.40;;
14143;SDS011;7152;48.348;10.980;2023-02-10T06:53:14;25.73;;;15.90;;
14143;SDS011;7152;48.348;10.980;2023-02-10T06:55:39;32.90;;;18.23;;
14143;SDS011;7152;48.348;10.980;2023-02-10T06:58:05;30.90;;;16.83;;
14143;SDS011;7152;48.348;10.980;2023-02-10T07:00:31;26.93;;;16.10;;
14143;SDS011;7152;48.348;10.980;2023-02-10T07:02:59;29.40;;;17.83;;
14143;SDS011;7152;48.348;10.980;2023-02-10T07:05:25;29.70;;;16.83;;
14143;SDS011;7152;48.348;10.980;2023-02-10T07:07:50;26.80;;;17.13;;
14143;SDS011;7152;48.348;10.980;2023-02-10T07:10:18;27.97;;;16.53;;
14143;SDS011;7152;48.348;10.980;2023-02-10T07:12:44;26.13;;;15.83;;
14143;SDS011;7152;48.348;10.980;2023-02-10T07:15:12;24.97;;;15.53;;
14143;SDS011;7152;48.348;10.980;2023-02-10T07:17:38;26.20;;;15.83;;
14143;SDS011;7152;48.348;10.980;2023-02-10T07:20:04;22.90;;;14.37;;
14143;SDS011;7152;48.348;10.980;2023-02-10T07:22:30;27.47;;;15.10;;
14143;SDS011;7152;48.348;10.980;2023-02-10T07:24:56;25.23;;;16.17;;
14143;SDS011;7152;48.348;10.980;2023-02-10T07:27:22;22.90;;;15.00;;
14143;SDS011;7152;48.348;10.980;2023-02-10T07:29:48;23.27;;;14.07;;
14143;SDS011;7152;48.348;10.980;2023-02-10T07:32:14;23.87;;;13.97;;
14143;SDS011;7152;48.348;10.980;2023-02-10T07:34:39;23.27;;;15.47;;
14143;SDS011;7152;48.348;10.980;2023-02-10T07:37:05;27.00;;;17.00;;
14143;SDS011;7152;48.348;10.980;2023-02-10T07:39:32;25.30;;;16.33;;
14143;SDS011;7152;48.348;10.980;2023-02-10T07:41:57;22.80;;;15.23;;
14143;SDS011;7152;48.348;10.980;2023-02-10T07:44:23;24.63;;;16.23;;
14143;SDS011;7152;48.348;10.980;2023-02-10T07:46:51;23.67;;;15.63;;
14143;SDS011;7152;48.348;10.980;2023-02-10T07:49:17;25.57;;;15.33;;
14143;SDS011;7152;48.348;10.980;2023-02-10T07:51:43;25.80;;;15.40;;
14143;SDS011;7152;48.348;10.980;2023-02-10T07:54:09;24.63;;;15.43;;
14143;SDS011;7152;48.348;10.980;2023-02-10T07:56:35;24.90;;;15.47;;
14143;SDS011;7152;48.348;10.980;2023-02-10T07:59:00;21.23;;;14.30;;
14143;SDS011;7152;48.348;10.980;2023-02-10T08:01:26;25.87;;;14.97;;
14143;SDS011;7152;48.348;10.980;2023-02-10T08:03:52;21.67;;;14.97;;
14143;SDS011;7152;48.348;10.980;2023-02-10T08:06:21;21.30;;;14.73;;
14143;SDS011;7152;48.348;10.980;2023-02-10T08:08:47;21.87;;;15.17;;
14143;SDS011;7152;48.348;10.980;2023-02-10T08:11:13;23.30;;;15.53;;
14143;SDS011;7152;48.348;10.980;2023-02-10T08:13:39;24.37;;;15.73;;
14143;SDS011;7152;48.348;10.980;2023-02-10T08:16:06;21.87;;;14.87;;
14143;SDS011;7152;48.348;10.980;2023-02-10T08:18:33;21.87;;;15.27;;
14143;SDS011;7152;48.348;10.980;2023-02-10T08:21:00;24.03;;;14.83;;
14143;SDS011;7152;48.348;10.980;2023-02-10T08:23:26;21.97;;;14.70;;
14143;SDS011;7152;48.348;10.980;2023-02-10T08:25:52;23.33;;;14.97;;
14143;SDS011;7152;48.348;10.980;2023-02-10T08:28:18;24.47;;;14.57;;
14143;SDS011;7152;48.348;10.980;2023-02-10T08:30:44;21.57;;;13.93;;
14143;SDS011;7152;48.348;10.980;2023-02-10T08:33:10;22.87;;;14.50;;
14143;SDS011;7152;48.348;10.980;2023-02-10T08:35:36;25.07;;;15.37;;
14143;SDS011;7152;48.348;10.980;2023-02-10T08:38:02;24.93;;;15.30;;
14143;SDS011;7152;48.348;10.980;2023-02-10T08:40:29;25.17;;;15.60;;
14143;SDS011;7152;48.348;10.980;2023-02-10T08:42:55;24.30;;;14.43;;
14143;SDS011;7152;48.348;10.980;2023-02-10T08:45:21;22.90;;;14.33;;
14143;SDS011;7152;48.348;10.980;2023-02-10T08:47:46;25.00;;;15.37;;
14143;SDS011;7152;48.348;10.980;2023-02-10T08:50:12;19.93;;;14.07;;
14143;SDS011;7152;48.348;10.980;2023-02-10T08:52:38;24.33;;;14.63;;
14143;SDS011;7152;48.348;10.980;2023-02-10T08:55:03;20.63;;;14.43;;
14143;SDS011;7152;48.348;10.980;2023-02-10T08:57:29;18.27;;;13.00;;
14143;SDS011;7152;48.348;10.980;2023-02-10T08:59:55;20.37;;;13.33;;
14143;SDS011;7152;48.348;10.980;2023-02-10T09:02:21;19.93;;;13.33;;
14143;SDS011;7152;48.348;10.980;2023-02-10T09:04:46;18.90;;;12.60;;
14143;SDS011;7152;48.348;10.980;2023-02-10T09:07:12;25.03;;;13.87;;
14143;SDS011;7152;48.348;10.980;2023-02-10T09:09:39;20.03;;;14.67;;
14143;SDS011;7152;48.348;10.980;2023-02-10T09:12:06;19.50;;;12.80;;
14143;SDS011;7152;48.348;10.980;2023-02-10T09:14:35;19.93;;;13.30;;
14143;SDS011;7152;48.348;10.980;2023-02-10T09:17:01;20.83;;;14.77;;
14143;SDS011;7152;48.348;10.980;2023-02-10T09:19:27;21.43;;;14.37;;
14143;SDS011;7152;48.348;10.980;2023-02-10T09:21:53;19.00;;;13.03;;
14143;SDS011;7152;48.348;10.980;2023-02-10T09:24:20;21.97;;;14.63;;
14143;SDS011;7152;48.348;10.980;2023-02-10T09:26:48;21.80;;;14.97;;
14143;SDS011;7152;48.348;10.980;2023-02-10T09:29:14;23.97;;;15.87;;
14143;SDS011;7152;48.348;10.980;2023-02-10T09:31:40;20.30;;;15.00;;
14143;SDS011;7152;48.348;10.980;2023-02-10T09:34:06;24.13;;;16.53;;
14143;SDS011;7152;48.348;10.980;2023-02-10T09:36:31;23.40;;;15.87;;
14143;SDS011;7152;48.348;10.980;2023-02-10T09:38:57;26.87;;;15.97;;
14143;SDS011;7152;48.348;10.980;2023-02-10T09:44:17;23.13;;;15.67;;
14143;SDS011;7152;48.348;10.980;2023-02-10T09:54:53;26.60;;;17.57;;
14143;SDS011;7152;48.348;10.980;2023-02-10T09:57:21;26.47;;;18.63;;
14143;SDS011;7152;48.348;10.980;2023-02-10T09:59:55;26.80;;;17.47;;
14143;SDS011;7152;48.348;10.980;2023-02-10T10:02:34;25.93;;;17.57;;
14143;SDS011;7152;48.348;10.980;2023-02-10T10:05:55;24.80;;;17.53;;
14143;SDS011;7152;48.348;10.980;2023-02-10T10:08:03;27.03;;;19.10;;
14143;SDS011;7152;48.348;10.980;2023-02-10T10:10:38;26.37;;;17.77;;
14143;SDS011;7152;48.348;10.980;2023-02-10T10:13:12;24.73;;;17.77;;
14143;SDS011;7152;48.348;10.980;2023-02-10T10:15:49;30.20;;;21.03;;
14143;SDS011;7152;48.348;10.980;2023-02-10T10:19:17;31.83;;;21.40;;
14143;SDS011;7152;48.348;10.980;2023-02-10T10:30:09;31.50;;;20.87;;
14143;SDS011;7152;48.348;10.980;2023-02-10T10:34:51;29.20;;;20.33;;
14143;SDS011;7152;48.348;10.980;2023-02-10T10:37:22;31.07;;;20.47;;
14143;SDS011;7152;48.348;10.980;2023-02-10T10:39:50;29.73;;;19.83;;
14143;SDS011;7152;48.348;10.980;2023-02-10T10:42:26;30.27;;;20.33;;
14143;SDS011;7152;48.348;10.980;2023-02-10T10:44:55;32.90;;;21.80;;
14143;SDS011;7152;48.348;10.980;2023-02-10T10:47:47;31.80;;;21.23;;
14143;SDS011;7152;48.348;10.980;2023-02-10T10:50:18;37.43;;;22.33;;
14143;SDS011;7152;48.348;10.980;2023-02-10T10:52:46;28.23;;;19.30;;
14143;SDS011;7152;48.348;10.980;2023-02-10T10:55:24;29.73;;;20.73;;
14143;SDS011;7152;48.348;10.980;2023-02-10T10:57:59;31.37;;;20.60;;
14143;SDS011;7152;48.348;10.980;2023-02-10T11:00:27;29.77;;;21.37;;
14143;SDS011;7152;48.348;10.980;2023-02-10T11:03:01;31.63;;;20.73;;
14143;SDS011;7152;48.348;10.980;2023-02-10T11:05:37;30.03;;;20.10;;
14143;SDS011;7152;48.348;10.980;2023-02-10T11:08:03;30.03;;;21.00;;
14143;SDS011;7152;48.348;10.980;2023-02-10T11:10:48;28.03;;;20.83;;
14143;SDS011;7152;48.348;10.980;2023-02-10T11:13:21;29.30;;;19.53;;
14143;SDS011;7152;48.348;10.980;2023-02-10T11:15:57;34.60;;;23.37;;
14143;SDS011;7152;48.348;10.980;2023-02-10T11:18:29;33.63;;;22.57;;
14143;SDS011;7152;48.348;10.980;2023-02-10T11:20:59;34.80;;;22.07;;
14143;SDS011;7152;48.348;10.980;2023-02-10T11:23:27;29.07;;;20.37;;
14143;SDS011;7152;48.348;10.980;2023-02-10T11:26:04;30.23;;;21.73;;
14143;SDS011;7152;48.348;10.980;2023-02-10T11:28:34;31.23;;;21.43;;
14143;SDS011;7152;48.348;10.980;2023-02-10T11:31:46;29.13;;;21.37;;
14143;SDS011;7152;48.348;10.980;2023-02-10T11:33:56;32.70;;;21.60;;
14143;SDS011;7152;48.348;10.980;2023-02-10T11:36:37;34.73;;;22.03;;
14143;SDS011;7152;48.348;10.980;2023-02-10T11:39:05;31.40;;;21.53;;
14143;SDS011;7152;48.348;10.980;2023-02-10T11:41:44;32.80;;;22.53;;
14143;SDS011;7152;48.348;10.980;2023-02-10T11:44:27;33.50;;;22.80;;
14143;SDS011;7152;48.348;10.980;2023-02-10T11:47:05;29.40;;;20.53;;
14143;SDS011;7152;48.348;10.980;2023-02-10T11:49:42;29.80;;;21.17;;
14143;SDS011;7152;48.348;10.980;2023-02-10T11:52:09;29.20;;;20.47;;
14143;SDS011;7152;48.348;10.980;2023-02-10T11:54:36;29.63;;;21.40;;
14143;SDS011;7152;48.348;10.980;2023-02-10T12:00:15;32.33;;;21.63;;
14143;SDS011;7152;48.348;10.980;2023-02-10T12:03:01;31.37;;;20.37;;
14143;SDS011;7152;48.348;10.980;2023-02-10T12:32:12;24.63;;;19.10;;
14143;SDS011;7152;48.348;10.980;2023-02-10T12:39:49;28.07;;;19.13;;
14143;SDS011;7152;48.348;10.980;2023-02-10T12:45:26;25.47;;;18.53;;
14143;SDS011;7152;48.348;10.980;2023-02-10T12:51:56;25.93;;;19.03;;
14143;SDS011;7152;48.348;10.980;2023-02-10T12:54:26;25.23;;;18.83;;
14143;SDS011;7152;48.348;10.980;2023-02-10T12:57:03;24.93;;;19.50;;
14143;SDS011;7152;48.348;10.980;2023-02-10T13:00:19;25.60;;;19.07;;
14143;SDS011;7152;48.348;10.980;2023-02-10T13:02:50;24.67;;;19.00;;
14143;SDS011;7152;48.348;10.980;2023-02-10T13:05:23;26.43;;;18.40;;
14143;SDS011;7152;48.348;10.980;2023-02-10T13:07:59;28.00;;;19.50;;
14143;SDS011;7152;48.348;10.980;2023-02-10T13:10:27;26.13;;;19.47;;
14143;SDS011;7152;48.348;10.980;2023-02-10T13:13:05;23.07;;;18.00;;
14143;SDS011;7152;48.348;10.980;2023-02-10T13:15:50;22.47;;;18.27;;
14143;SDS011;7152;48.348;10.980;2023-02-10T13:18:22;23.93;;;18.67;;
14143;SDS011;7152;48.348;10.980;2023-02-10T13:23:52;22.43;;;18.70;;
14143;SDS011;7152;48.348;10.980;2023-02-10T13:34:54;20.63;;;17.40;;
14143;SDS011;7152;48.348;10.980;2023-02-10T13:37:30;21.03;;;17.73;;
14143;SDS011;7152;48.348;10.980;2023-02-10T13:40:03;21.00;;;17.30;;
14143;SDS011;7152;48.348;10.980;2023-02-10T13:42:38;21.53;;;16.73;;
14143;SDS011;7152;48.348;10.980;2023-02-10T13:45:16;19.37;;;16.73;;
14143;SDS011;7152;48.348;10.980;2023-02-10T13:52:50;21.73;;;17.67;;
14143;SDS011;7152;48.348;10.980;2023-02-10T13:55:26;21.57;;;17.53;;
14143;SDS011;7152;48.348;10.980;2023-02-10T13:58:01;21.10;;;18.00;;
14143;SDS011;7152;48.348;10.980;2023-02-10T14:00:47;22.23;;;18.27;;
14143;SDS011;7152;48.348;10.980;2023-02-10T14:05:51;22.57;;;17.30;;
14143;SDS011;7152;48.348;10.980;2023-02-10T14:08:31;20.43;;;16.03;;
14143;SDS011;7152;48.348;10.980;2023-02-10T14:13:39;21.03;;;17.73;;
14143;SDS011;7152;48.348;10.980;2023-02-10T14:16:19;17.70;;;14.90;;
14143;SDS011;7152;48.348;10.980;2023-02-10T14:27:55;21.43;;;16.27;;
14143;SDS011;7152;48.348;10.980;2023-02-10T14:32:56;19.20;;;15.40;;
14143;SDS011;7152;48.348;10.980;2023-02-10T14:35:23;23.67;;;15.30;;
14143;SDS011;7152;48.348;10.980;2023-02-10T14:37:51;23.03;;;17.53;;
14143;SDS011;7152;48.348;10.980;2023-02-10T14:40:19;21.67;;;16.20;;
14143;SDS011;7152;48.348;10.980;2023-02-10T14:42:46;22.03;;;16.73;;
14143;SDS011;7152;48.348;10.980;2023-02-10T14:45:22;20.63;;;16.03;;
14143;SDS011;7152;48.348;10.980;2023-02-10T14:47:51;28.50;;;20.97;;
14143;SDS011;7152;48.348;10.980;2023-02-10T14:52:50;26.43;;;21.57;;
14143;SDS011;7152;48.348;10.980;2023-02-10T14:55:29;27.47;;;22.00;;
14143;SDS011;7152;48.348;10.980;2023-02-10T14:58:02;26.70;;;20.77;;
14143;SDS011;7152;48.348;10.980;2023-02-10T15:00:30;29.40;;;20.33;;
14143;SDS011;7152;48.348;10.980;2023-02-10T15:02:58;29.90;;;21.77;;
14143;SDS011;7152;48.348;10.980;2023-02-10T15:05:25;28.80;;;22.03;;
14143;SDS011;7152;48.348;10.980;2023-02-10T15:07:56;28.87;;;21.73;;
14143;SDS011;7152;48.348;10.980;2023-02-10T15:12:48;31.33;;;22.67;;
14143;SDS011;7152;48.348;10.980;2023-02-10T15:17:50;31.93;;;23.50;;
14143;SDS011;7152;48.348;10.980;2023-02-10T15:20:26;30.67;;;23.20;;
14143;SDS011;7152;48.348;10.980;2023-02-10T15:27:55;31.17;;;22.53;;
14143;SDS011;7152;48.348;10.980;2023-02-10T15:30:24;33.03;;;22.47;;
14143;SDS011;7152;48.348;10.980;2023-02-10T15:32:52;32.57;;;23.70;;
14143;SDS011;7152;48.348;10.980;2023-02-10T15:35:21;33.33;;;23.63;;
14143;SDS011;7152;48.348;10.980;2023-02-10T15:37:54;34.00;;;24.37;;
14143;SDS011;7152;48.348;10.980;2023-02-10T15:40:24;32.00;;;21.93;;
14143;SDS011;7152;48.348;10.980;2023-02-10T15:43:02;38.50;;;23.80;;
14143;SDS011;7152;48.348;10.980;2023-02-10T15:45:47;33.83;;;22.40;;
14143;SDS011;7152;48.348;10.980;2023-02-10T15:48:17;35.33;;;22.43;;
14143;SDS011;7152;48.348;10.980;2023-02-10T15:50:44;33.30;;;22.83;;
14143;SDS011;7152;48.348;10.980;2023-02-10T15:53:11;35.80;;;23.27;;
14143;SDS011;7152;48.348;10.980;2023-02-10T15:55:43;33.37;;;22.83;;
14143;SDS011;7152;48.348;10.980;2023-02-10T15:58:10;31.27;;;22.47;;
14143;SDS011;7152;48.348;10.980;2023-02-10T16:00:37;35.37;;;23.93;;
14143;SDS011;7152;48.348;10.980;2023-02-10T16:03:03;32.73;;;23.23;;
14143;SDS011;7152;48.348;10.980;2023-02-10T16:05:31;41.90;;;28.63;;
14143;SDS011;7152;48.348;10.980;2023-02-10T16:08:22;40.87;;;27.20;;
14143;SDS011;7152;48.348;10.980;2023-02-10T16:10:46;38.30;;;24.13;;
14143;SDS011;7152;48.348;10.980;2023-02-10T16:13:13;34.90;;;24.20;;
14143;SDS011;7152;48.348;10.980;2023-02-10T16:15:40;37.63;;;25.73;;
14143;SDS011;7152;48.348;10.980;2023-02-10T16:18:08;35.53;;;24.83;;
14143;SDS011;7152;48.348;10.980;2023-02-10T16:20:37;35.77;;;24.60;;
14143;SDS011;7152;48.348;10.980;2023-02-10T16:23:04;42.20;;;25.60;;
14143;SDS011;7152;48.348;10.980;2023-02-10T16:25:34;40.83;;;28.80;;
14143;SDS011;7152;48.348;10.980;2023-02-10T16:27:59;42.47;;;28.40;;
14143;SDS011;7152;48.348;10.980;2023-02-10T16:30:26;40.37;;;26.20;;
14143;SDS011;7152;48.348;10.980;2023-02-10T16:32:53;40.73;;;25.67;;
14143;SDS011;7152;48.348;10.980;2023-02-10T16:35:19;36.93;;;26.67;;
14143;SDS011;7152;48.348;10.980;2023-02-10T16:37:45;44.73;;;27.60;;
14143;SDS011;7152;48.348;10.980;2023-02-10T16:40:24;59.80;;;36.67;;